Degray, South Dakota
Current Conditions -  °F | °C
As of 3:53 PM on Tuesday 25 Nov 2014 (Local Time) from KPIR Reporting Station
Overcast Overcast  
Wind Chill: 30°   Ceiling: 7000
Heat Index: 36°   Visibility: 10mi
Dew Point: 27°   Wind: 7mph
Humidity: 70%   Direction: 160°SSE
Pressure: 29.76"   Gusts: NA
Location:  44.4586°N, 99.8388°W
Report Text: KPIR 252153Z AUTO 16006KT 10SM BKN070 OVC080 02/M03 A2976 RMK AO2 SLP094 T00221028
Loading
Personal Weather Stations






























Interactive Weather Map New forecast layout! Learn more

10-Day Weather Forecast

Advertisements
Track Severe Weather on mobile